sensor_id;sensor_type;location;lat;lon;timestamp;pressure;altitude;pressure_sealevel;temperature
72054;BMP280;59918;51.280;7.950;2024-01-16T00:00:51;97077.69;;;1.24
72054;BMP280;59918;51.280;7.950;2024-01-16T00:03:16;97072.28;;;1.27
72054;BMP280;59918;51.280;7.950;2024-01-16T00:05:41;97070.56;;;1.27
72054;BMP280;59918;51.280;7.950;2024-01-16T00:08:07;97074.81;;;1.27
72054;BMP280;59918;51.280;7.950;2024-01-16T00:10:32;97074.81;;;1.27
72054;BMP280;59918;51.280;7.950;2024-01-16T00:12:57;97081.47;;;1.28
72054;BMP280;59918;51.280;7.950;2024-01-16T00:15:22;97079.09;;;1.26
72054;BMP280;59918;51.280;7.950;2024-01-16T00:17:48;97092.56;;;1.27
72054;BMP280;59918;51.280;7.950;2024-01-16T00:20:13;97083.53;;;1.24
72054;BMP280;59918;51.280;7.950;2024-01-16T00:22:38;97097.00;;;1.25
72054;BMP280;59918;51.280;7.950;2024-01-16T00:25:04;97086.22;;;1.23
72054;BMP280;59918;51.280;7.950;2024-01-16T00:27:30;97087.50;;;1.19
72054;BMP280;59918;51.280;7.950;2024-01-16T00:29:55;97088.63;;;1.16
72054;BMP280;59918;51.280;7.950;2024-01-16T00:32:20;97104.31;;;1.12
72054;BMP280;59918;51.280;7.950;2024-01-16T00:34:45;97104.31;;;1.12
72054;BMP280;59918;51.280;7.950;2024-01-16T00:37:13;97105.09;;;1.12
72054;BMP280;59918;51.280;7.950;2024-01-16T00:39:38;97106.84;;;1.12
72054;BMP280;59918;51.280;7.950;2024-01-16T00:42:03;97107.63;;;1.12
72054;BMP280;59918;51.280;7.950;2024-01-16T00:44:29;97110.31;;;1.11
72054;BMP280;59918;51.280;7.950;2024-01-16T00:46:54;97116.50;;;1.08
72054;BMP280;59918;51.280;7.950;2024-01-16T00:49:19;97121.56;;;1.08
72054;BMP280;59918;51.280;7.950;2024-01-16T00:51:45;97129.00;;;1.10
72054;BMP280;59918;51.280;7.950;2024-01-16T00:54:10;97120.78;;;1.08
72054;BMP280;59918;51.280;7.950;2024-01-16T00:56:35;97127.56;;;1.08
72054;BMP280;59918;51.280;7.950;2024-01-16T00:59:01;97134.53;;;1.06
72054;BMP280;59918;51.280;7.950;2024-01-16T01:01:26;97136.63;;;1.02
72054;BMP280;59918;51.280;7.950;2024-01-16T01:03:51;97138.06;;;0.97
72054;BMP280;59918;51.280;7.950;2024-01-16T01:06:17;97130.59;;;0.95
72054;BMP280;59918;51.280;7.950;2024-01-16T01:08:42;97127.16;;;0.96
72054;BMP280;59918;51.280;7.950;2024-01-16T01:11:07;97133.13;;;0.95
72054;BMP280;59918;51.280;7.950;2024-01-16T01:13:32;97114.81;;;0.85
72054;BMP280;59918;51.280;7.950;2024-01-16T01:15:58;97117.50;;;0.76
72054;BMP280;59918;51.280;7.950;2024-01-16T01:18:23;97115.78;;;0.69
72054;BMP280;59918;51.280;7.950;2024-01-16T01:20:48;97123.38;;;0.69
72054;BMP280;59918;51.280;7.950;2024-01-16T01:23:13;97117.06;;;0.73
72054;BMP280;59918;51.280;7.950;2024-01-16T01:25:39;97124.47;;;0.74
72054;BMP280;59918;51.280;7.950;2024-01-16T01:28:04;97137.59;;;0.77
72054;BMP280;59918;51.280;7.950;2024-01-16T01:30:29;97129.06;;;0.78
72054;BMP280;59918;51.280;7.950;2024-01-16T01:32:54;97138.84;;;0.81
72054;BMP280;59918;51.280;7.950;2024-01-16T01:35:20;97135.38;;;0.82
72054;BMP280;59918;51.280;7.950;2024-01-16T01:37:45;97135.06;;;0.85
72054;BMP280;59918;51.280;7.950;2024-01-16T01:40:11;97144.06;;;0.88
72054;BMP280;59918;51.280;7.950;2024-01-16T01:42:36;97145.66;;;0.89
72054;BMP280;59918;51.280;7.950;2024-01-16T01:45:01;97145.31;;;0.92
72054;BMP280;59918;51.280;7.950;2024-01-16T01:47:27;97147.69;;;0.93
72054;BMP280;59918;51.280;7.950;2024-01-16T01:49:52;97147.69;;;0.93
72054;BMP280;59918;51.280;7.950;2024-01-16T01:52:17;97150.72;;;0.97
72054;BMP280;59918;51.280;7.950;2024-01-16T01:54:43;97146.59;;;0.96
72054;BMP280;59918;51.280;7.950;2024-01-16T01:57:09;97151.19;;;0.92
72054;BMP280;59918;51.280;7.950;2024-01-16T01:59:34;97153.09;;;0.90
72054;BMP280;59918;51.280;7.950;2024-01-16T02:02:00;97145.31;;;0.92
72054;BMP280;59918;51.280;7.950;2024-01-16T02:04:26;97157.81;;;0.93
72054;BMP280;59918;51.280;7.950;2024-01-16T02:06:51;97158.47;;;0.95
72054;BMP280;59918;51.280;7.950;2024-01-16T02:09:16;97158.31;;;0.97
72054;BMP280;59918;51.280;7.950;2024-01-16T02:11:42;97154.03;;;0.97
72054;BMP280;59918;51.280;7.950;2024-01-16T02:14:08;97148.97;;;0.97
72054;BMP280;59918;51.280;7.950;2024-01-16T02:16:38;97155.63;;;0.98
72054;BMP280;59918;51.280;7.950;2024-01-16T02:19:04;97162.25;;;0.99
72054;BMP280;59918;51.280;7.950;2024-01-16T02:21:39;97155.28;;;1.01
72054;BMP280;59918;51.280;7.950;2024-01-16T02:24:08;97168.09;;;1.00
72054;BMP280;59918;51.280;7.950;2024-01-16T02:26:35;97167.31;;;0.99
72054;BMP280;59918;51.280;7.950;2024-01-16T02:29:03;97166.69;;;0.97
72054;BMP280;59918;51.280;7.950;2024-01-16T02:31:28;97168.09;;;1.00
72054;BMP280;59918;51.280;7.950;2024-01-16T02:33:53;97171.59;;;0.99
72054;BMP280;59918;51.280;7.950;2024-01-16T02:36:19;97169.22;;;0.97
72054;BMP280;59918;51.280;7.950;2024-01-16T02:38:44;97168.44;;;0.97
72054;BMP280;59918;51.280;7.950;2024-01-16T02:41:09;97167.03;;;0.94
72054;BMP280;59918;51.280;7.950;2024-01-16T02:43:34;97179.97;;;0.91
72054;BMP280;59918;51.280;7.950;2024-01-16T02:46:00;97181.25;;;0.87
72054;BMP280;59918;51.280;7.950;2024-01-16T02:48:25;97176.34;;;0.86
72054;BMP280;59918;51.280;7.950;2024-01-16T02:50:50;97177.44;;;0.83
72054;BMP280;59918;51.280;7.950;2024-01-16T02:53:15;97179.84;;;0.85
72054;BMP280;59918;51.280;7.950;2024-01-16T02:55:41;97178.22;;;0.84
72054;BMP280;59918;51.280;7.950;2024-01-16T02:58:06;97184.13;;;0.84
72054;BMP280;59918;51.280;7.950;2024-01-16T03:00:31;97187.72;;;0.82
72054;BMP280;59918;51.280;7.950;2024-01-16T03:02:56;97189.47;;;0.81
72054;BMP280;59918;51.280;7.950;2024-01-16T03:05:22;97181.25;;;0.79
72054;BMP280;59918;51.280;7.950;2024-01-16T03:07:47;97187.91;;;0.80
72054;BMP280;59918;51.280;7.950;2024-01-16T03:10:12;97197.84;;;0.82
72054;BMP280;59918;51.280;7.950;2024-01-16T03:12:37;97196.13;;;0.82
72054;BMP280;59918;51.280;7.950;2024-01-16T03:15:03;97184.25;;;0.83
72054;BMP280;59918;51.280;7.950;2024-01-16T03:17:28;97188.22;;;0.85
72054;BMP280;59918;51.280;7.950;2024-01-16T03:19:53;97191.06;;;0.82
72054;BMP280;59918;51.280;7.950;2024-01-16T03:22:19;97186.31;;;0.79
72054;BMP280;59918;51.280;7.950;2024-01-16T03:24:44;97184.56;;;0.80
72054;BMP280;59918;51.280;7.950;2024-01-16T03:27:09;97189.00;;;0.78
72054;BMP280;59918;51.280;7.950;2024-01-16T03:29:34;97187.72;;;0.74
72054;BMP280;59918;51.280;7.950;2024-01-16T03:32:00;97190.09;;;0.75
72054;BMP280;59918;51.280;7.950;2024-01-16T03:34:25;97188.69;;;0.73
72054;BMP280;59918;51.280;7.950;2024-01-16T03:36:50;97189.31;;;0.75
72054;BMP280;59918;51.280;7.950;2024-01-16T03:39:15;97183.28;;;0.76
72054;BMP280;59918;51.280;7.950;2024-01-16T03:41:41;97184.13;;;0.76
72054;BMP280;59918;51.280;7.950;2024-01-16T03:44:06;97173.19;;;0.76
72054;BMP280;59918;51.280;7.950;2024-01-16T03:46:31;97185.03;;;0.75
72054;BMP280;59918;51.280;7.950;2024-01-16T03:48:56;97176.53;;;0.76
72054;BMP280;59918;51.280;7.950;2024-01-16T03:51:22;97180.94;;;0.74
72054;BMP280;59918;51.280;7.950;2024-01-16T03:53:47;97176.97;;;0.72
72054;BMP280;59918;51.280;7.950;2024-01-16T03:56:13;97185.19;;;0.66
72054;BMP280;59918;51.280;7.950;2024-01-16T03:58:39;97177.44;;;0.60
72054;BMP280;59918;51.280;7.950;2024-01-16T04:01:05;97188.50;;;0.59
72054;BMP280;59918;51.280;7.950;2024-01-16T04:03:30;97178.56;;;0.57
72054;BMP280;59918;51.280;7.950;2024-01-16T04:05:55;97179.97;;;0.60
72054;BMP280;59918;51.280;7.950;2024-01-16T04:08:21;97179.84;;;0.61
72054;BMP280;59918;51.280;7.950;2024-01-16T04:10:46;97169.38;;;0.64
72054;BMP280;59918;51.280;7.950;2024-01-16T04:13:11;97174.13;;;0.67
72054;BMP280;59918;51.280;7.950;2024-01-16T04:15:39;97169.56;;;0.71
72054;BMP280;59918;51.280;7.950;2024-01-16T04:18:05;97172.72;;;0.73
72054;BMP280;59918;51.280;7.950;2024-01-16T04:20:30;97174.13;;;0.75
72054;BMP280;59918;51.280;7.950;2024-01-16T04:22:56;97172.88;;;0.79
72054;BMP280;59918;51.280;7.950;2024-01-16T04:25:21;97177.78;;;0.80
72054;BMP280;59918;51.280;7.950;2024-01-16T04:27:46;97174.28;;;0.81
72054;BMP280;59918;51.280;7.950;2024-01-16T04:30:12;97179.97;;;0.83
72054;BMP280;59918;51.280;7.950;2024-01-16T04:32:40;97177.16;;;0.86
72054;BMP280;59918;51.280;7.950;2024-01-16T04:35:05;97173.66;;;0.87
72054;BMP280;59918;51.280;7.950;2024-01-16T04:37:31;97173.50;;;0.89
72054;BMP280;59918;51.280;7.950;2024-01-16T04:39:56;97174.44;;;0.88
72054;BMP280;59918;51.280;7.950;2024-01-16T04:42:22;97171.75;;;0.89
72054;BMP280;59918;51.280;7.950;2024-01-16T04:44:47;97167.81;;;0.87
72054;BMP280;59918;51.280;7.950;2024-01-16T04:47:12;97169.38;;;0.88
72054;BMP280;59918;51.280;7.950;2024-01-16T04:49:37;97173.66;;;0.87
72054;BMP280;59918;51.280;7.950;2024-01-16T04:52:03;97169.22;;;0.89
72054;BMP280;59918;51.280;7.950;2024-01-16T04:54:28;97169.84;;;0.91
72054;BMP280;59918;51.280;7.950;2024-01-16T04:56:54;97174.28;;;0.89
72054;BMP280;59918;51.280;7.950;2024-01-16T04:59:19;97171.13;;;0.87
72054;BMP280;59918;51.280;7.950;2024-01-16T05:01:44;97172.72;;;0.88
72054;BMP280;59918;51.280;7.950;2024-01-16T05:04:09;97163.53;;;0.87
72054;BMP280;59918;51.280;7.950;2024-01-16T05:06:35;97174.63;;;0.86
72054;BMP280;59918;51.280;7.950;2024-01-16T05:09:00;97155.94;;;0.87
72054;BMP280;59918;51.280;7.950;2024-01-16T05:11:25;97168.44;;;0.89
72054;BMP280;59918;51.280;7.950;2024-01-16T05:13:50;97166.84;;;0.88
72054;BMP280;59918;51.280;7.950;2024-01-16T05:16:16;97165.44;;;0.85
72054;BMP280;59918;51.280;7.950;2024-01-16T05:18:44;97160.69;;;0.82
72054;BMP280;59918;51.280;7.950;2024-01-16T05:21:09;97170.81;;;0.82
72054;BMP280;59918;51.280;7.950;2024-01-16T05:23:34;97159.72;;;0.83
72054;BMP280;59918;51.280;7.950;2024-01-16T05:25:59;97170.34;;;0.87
72054;BMP280;59918;51.280;7.950;2024-01-16T05:28:25;97168.59;;;0.87
72054;BMP280;59918;51.280;7.950;2024-01-16T05:30:50;97164.31;;;0.88
72054;BMP280;59918;51.280;7.950;2024-01-16T05:33:15;97166.06;;;0.87
72054;BMP280;59918;51.280;7.950;2024-01-16T05:35:41;97169.22;;;0.89
72054;BMP280;59918;51.280;7.950;2024-01-16T05:38:06;97166.69;;;0.89
72054;BMP280;59918;51.280;7.950;2024-01-16T05:40:31;97165.91;;;0.89
72054;BMP280;59918;51.280;7.950;2024-01-16T05:42:56;97163.53;;;0.87
72054;BMP280;59918;51.280;7.950;2024-01-16T05:45:22;97167.03;;;0.86
72054;BMP280;59918;51.280;7.950;2024-01-16T05:47:47;97157.06;;;0.85
72054;BMP280;59918;51.280;7.950;2024-01-16T05:50:12;97159.59;;;0.85
72054;BMP280;59918;51.280;7.950;2024-01-16T05:52:38;97159.72;;;0.83
72054;BMP280;59918;51.280;7.950;2024-01-16T05:55:04;97163.03;;;0.84
72054;BMP280;59918;51.280;7.950;2024-01-16T05:57:29;97163.88;;;0.84
72054;BMP280;59918;51.280;7.950;2024-01-16T05:59:55;97166.41;;;0.84
72054;BMP280;59918;51.280;7.950;2024-01-16T06:02:20;97157.97;;;0.84
72054;BMP280;59918;51.280;7.950;2024-01-16T06:04:45;97167.31;;;0.83
72054;BMP280;59918;51.280;7.950;2024-01-16T06:07:10;97167.31;;;0.83
72054;BMP280;59918;51.280;7.950;2024-01-16T06:09:39;97169.84;;;0.83
72054;BMP280;59918;51.280;7.950;2024-01-16T06:12:04;97169.84;;;0.83
72054;BMP280;59918;51.280;7.950;2024-01-16T06:14:30;97167.31;;;0.83
72054;BMP280;59918;51.280;7.950;2024-01-16T06:16:55;97159.88;;;0.82
72054;BMP280;59918;51.280;7.950;2024-01-16T06:19:20;97163.53;;;0.79
72054;BMP280;59918;51.280;7.950;2024-01-16T06:21:45;97171.75;;;0.73
72054;BMP280;59918;51.280;7.950;2024-01-16T06:24:13;97167.81;;;0.71
72054;BMP280;59918;51.280;7.950;2024-01-16T06:26:38;97160.06;;;0.73
72054;BMP280;59918;51.280;7.950;2024-01-16T06:29:04;97161.63;;;0.73
72054;BMP280;59918;51.280;7.950;2024-01-16T06:31:29;97158.16;;;0.74
72054;BMP280;59918;51.280;7.950;2024-01-16T06:33:54;97159.09;;;0.73
72054;BMP280;59918;51.280;7.950;2024-01-16T06:36:19;97150.25;;;0.70
72054;BMP280;59918;51.280;7.950;2024-01-16T06:38:45;97143.63;;;0.69
72054;BMP280;59918;51.280;7.950;2024-01-16T06:41:10;97147.88;;;0.68
72054;BMP280;59918;51.280;7.950;2024-01-16T06:43:35;97145.97;;;0.70
72054;BMP280;59918;51.280;7.950;2024-01-16T06:46:00;97151.50;;;0.73
72054;BMP280;59918;51.280;7.950;2024-01-16T06:48:26;97155.47;;;0.76
72054;BMP280;59918;51.280;7.950;2024-01-16T06:50:51;97153.75;;;0.76
72054;BMP280;59918;51.280;7.950;2024-01-16T06:53:16;97149.47;;;0.77
72054;BMP280;59918;51.280;7.950;2024-01-16T06:55:42;97157.84;;;0.77
72054;BMP280;59918;51.280;7.950;2024-01-16T06:58:07;97153.41;;;0.79
72054;BMP280;59918;51.280;7.950;2024-01-16T07:00:32;97155.94;;;0.79
72054;BMP280;59918;51.280;7.950;2024-01-16T07:02:58;97161.00;;;0.79
72054;BMP280;59918;51.280;7.950;2024-01-16T07:05:23;97166.84;;;0.80
72054;BMP280;59918;51.280;7.950;2024-01-16T07:07:48;97170.19;;;0.80
72054;BMP280;59918;51.280;7.950;2024-01-16T07:10:14;97171.13;;;0.79
72054;BMP280;59918;51.280;7.950;2024-01-16T07:12:39;97182.03;;;0.80
72054;BMP280;59918;51.280;7.950;2024-01-16T07:15:05;97172.38;;;0.75
72054;BMP280;59918;51.280;7.950;2024-01-16T07:17:30;97171.91;;;0.72
72054;BMP280;59918;51.280;7.950;2024-01-16T07:19:55;97176.53;;;0.69
72054;BMP280;59918;51.280;7.950;2024-01-16T07:22:21;97174.28;;;0.66
72054;BMP280;59918;51.280;7.950;2024-01-16T07:24:46;97180.75;;;0.68
72054;BMP280;59918;51.280;7.950;2024-01-16T07:27:11;97179.97;;;0.68
72054;BMP280;59918;51.280;7.950;2024-01-16T07:29:38;97182.84;;;0.65
72054;BMP280;59918;51.280;7.950;2024-01-16T07:32:03;97183.78;;;0.64
72054;BMP280;59918;51.280;7.950;2024-01-16T07:34:29;97199.44;;;0.67
72054;BMP280;59918;51.280;7.950;2024-01-16T07:36:56;97201.19;;;0.67
72054;BMP280;59918;51.280;7.950;2024-01-16T07:39:22;97196.91;;;0.67
72054;BMP280;59918;51.280;7.950;2024-01-16T07:41:47;97211.63;;;0.72
72054;BMP280;59918;51.280;7.950;2024-01-16T07:44:12;97205.28;;;0.75
72054;BMP280;59918;51.280;7.950;2024-01-16T07:46:37;97219.53;;;0.76
72054;BMP280;59918;51.280;7.950;2024-01-16T07:49:03;97219.53;;;0.76
72054;BMP280;59918;51.280;7.950;2024-01-16T07:51:28;97221.75;;;0.79
72054;BMP280;59918;51.280;7.950;2024-01-16T07:54:05;97224.13;;;0.81
72054;BMP280;59918;51.280;7.950;2024-01-16T07:56:31;97231.56;;;0.82
72054;BMP280;59918;51.280;7.950;2024-01-16T07:58:56;97223.97;;;0.82
72054;BMP280;59918;51.280;7.950;2024-01-16T08:01:21;97219.22;;;0.79
72054;BMP280;59918;51.280;7.950;2024-01-16T08:03:46;97221.09;;;0.77
72054;BMP280;59918;51.280;7.950;2024-01-16T08:06:13;97224.59;;;0.76
72054;BMP280;59918;51.280;7.950;2024-01-16T08:08:38;97226.16;;;0.77
72054;BMP280;59918;51.280;7.950;2024-01-16T08:11:04;97227.78;;;0.78
72054;BMP280;59918;51.280;7.950;2024-01-16T08:13:29;97231.56;;;0.82
72054;BMP280;59918;51.280;7.950;2024-01-16T08:15:54;97220.81;;;0.88
72054;BMP280;59918;51.280;7.950;2024-01-16T08:18:19;97222.88;;;0.93
72054;BMP280;59918;51.280;7.950;2024-01-16T08:20:44;97219.22;;;0.95
72054;BMP280;59918;51.280;7.950;2024-01-16T08:23:10;97220.47;;;0.99
72054;BMP280;59918;51.280;7.950;2024-01-16T08:25:35;97215.75;;;1.04
72054;BMP280;59918;51.280;7.950;2024-01-16T08:28:00;97208.44;;;1.09
72054;BMP280;59918;51.280;7.950;2024-01-16T08:30:25;97215.88;;;1.10
72054;BMP280;59918;51.280;7.950;2024-01-16T08:32:51;97216.53;;;1.12
72054;BMP280;59918;51.280;7.950;2024-01-16T08:35:16;97231.56;;;1.14
72054;BMP280;59918;51.280;7.950;2024-01-16T08:37:41;97231.22;;;1.17
72054;BMP280;59918;51.280;7.950;2024-01-16T08:40:07;97221.25;;;1.15
72054;BMP280;59918;51.280;7.950;2024-01-16T08:42:32;97224.25;;;1.19
72054;BMP280;59918;51.280;7.950;2024-01-16T08:44:57;97228.06;;;1.23
72054;BMP280;59918;51.280;7.950;2024-01-16T08:47:23;97228.69;;;1.25
72054;BMP280;59918;51.280;7.950;2024-01-16T08:49:48;97230.75;;;1.29
72054;BMP280;59918;51.280;7.950;2024-01-16T08:52:13;97227.91;;;1.32
72054;BMP280;59918;51.280;7.950;2024-01-16T08:54:38;97225.34;;;1.40
72054;BMP280;59918;51.280;7.950;2024-01-16T08:57:04;97227.22;;;1.46
72054;BMP280;59918;51.280;7.950;2024-01-16T08:59:29;97224.84;;;1.44
72054;BMP280;59918;51.280;7.950;2024-01-16T09:01:54;97231.81;;;1.43
72054;BMP280;59918;51.280;7.950;2024-01-16T09:04:19;97231.03;;;1.42
72054;BMP280;59918;51.280;7.950;2024-01-16T09:06:45;97222.50;;;1.43
72054;BMP280;59918;51.280;7.950;2024-01-16T09:09:10;97225.47;;;1.54
72054;BMP280;59918;51.280;7.950;2024-01-16T09:11:35;97234.00;;;1.61
72054;BMP280;59918;51.280;7.950;2024-01-16T09:14:00;97234.31;;;1.66
72054;BMP280;59918;51.280;7.950;2024-01-16T09:16:26;97233.66;;;1.72
72054;BMP280;59918;51.280;7.950;2024-01-16T09:18:51;97232.75;;;1.65
72054;BMP280;59918;51.280;7.950;2024-01-16T09:21:16;97240.03;;;1.60
72054;BMP280;59918;51.280;7.950;2024-01-16T09:23:42;97242.75;;;1.59
72054;BMP280;59918;51.280;7.950;2024-01-16T09:26:07;97231.97;;;1.57
72054;BMP280;59918;51.280;7.950;2024-01-16T09:28:32;97254.31;;;1.53
72054;BMP280;59918;51.280;7.950;2024-01-16T09:30:57;97247.00;;;1.50
72054;BMP280;59918;51.280;7.950;2024-01-16T09:33:23;97247.34;;;1.55
72054;BMP280;59918;51.280;7.950;2024-01-16T09:35:48;97247.47;;;1.62
72054;BMP280;59918;51.280;7.950;2024-01-16T09:38:14;97249.84;;;1.63
72054;BMP280;59918;51.280;7.950;2024-01-16T09:40:39;97254.41;;;1.76
72054;BMP280;59918;51.280;7.950;2024-01-16T09:43:05;97252.00;;;1.82
72054;BMP280;59918;51.280;7.950;2024-01-16T09:45:30;97251.03;;;1.91
72054;BMP280;59918;51.280;7.950;2024-01-16T09:47:56;97252.91;;;1.97
72054;BMP280;59918;51.280;7.950;2024-01-16T09:50:22;97242.63;;;1.98
72054;BMP280;59918;51.280;7.950;2024-01-16T09:52:48;97235.94;;;1.97
72054;BMP280;59918;51.280;7.950;2024-01-16T09:55:14;97248.47;;;1.99
72054;BMP280;59918;51.280;7.950;2024-01-16T09:57:45;97248.47;;;1.99
72054;BMP280;59918;51.280;7.950;2024-01-16T10:00:11;97247.81;;;2.05
72054;BMP280;59918;51.280;7.950;2024-01-16T10:02:39;97246.06;;;2.05
72054;BMP280;59918;51.280;7.950;2024-01-16T10:05:05;97252.88;;;2.05
72054;BMP280;59918;51.280;7.950;2024-01-16T10:07:31;97245.25;;;2.13
72054;BMP280;59918;51.280;7.950;2024-01-16T10:09:57;97249.03;;;2.17
72054;BMP280;59918;51.280;7.950;2024-01-16T10:12:22;97250.59;;;2.25
72054;BMP280;59918;51.280;7.950;2024-01-16T10:14:48;97250.09;;;2.30
72054;BMP280;59918;51.280;7.950;2024-01-16T10:17:14;97247.81;;;2.35
72054;BMP280;59918;51.280;7.950;2024-01-16T10:19:52;97235.97;;;2.35
72054;BMP280;59918;51.280;7.950;2024-01-16T10:22:22;97245.47;;;2.33
72054;BMP280;59918;51.280;7.950;2024-01-16T10:24:48;97238.69;;;2.26
72054;BMP280;59918;51.280;7.950;2024-01-16T10:27:15;97240.44;;;2.25
72054;BMP280;59918;51.280;7.950;2024-01-16T10:29:54;97236.97;;;2.18
72054;BMP280;59918;51.280;7.950;2024-01-16T10:32:32;97233.50;;;2.19
72054;BMP280;59918;51.280;7.950;2024-01-16T10:37:52;97227.06;;;2.39
72054;BMP280;59918;51.280;7.950;2024-01-16T10:40:23;97220.34;;;2.46
72054;BMP280;59918;51.280;7.950;2024-01-16T10:45:27;97214.44;;;2.76
72054;BMP280;59918;51.280;7.950;2024-01-16T10:50:27;97210.78;;;2.78
72054;BMP280;59918;51.280;7.950;2024-01-16T10:52:54;97209.81;;;2.79
72054;BMP280;59918;51.280;7.950;2024-01-16T10:55:22;97218.63;;;3.05
72054;BMP280;59918;51.280;7.950;2024-01-16T10:57:55;97214.06;;;3.23
72054;BMP280;59918;51.280;7.950;2024-01-16T11:00:21;97211.00;;;3.42
72054;BMP280;59918;51.280;7.950;2024-01-16T11:05:13;97213.66;;;3.91
72054;BMP280;59918;51.280;7.950;2024-01-16T11:07:40;97205.59;;;3.73
72054;BMP280;59918;51.280;7.950;2024-01-16T11:10:07;97206.09;;;4.12
72054;BMP280;59918;51.280;7.950;2024-01-16T11:12:32;97198.19;;;4.07
72054;BMP280;59918;51.280;7.950;2024-01-16T11:15:00;97200.94;;;3.77
72054;BMP280;59918;51.280;7.950;2024-01-16T11:17:25;97199.00;;;3.36
72054;BMP280;59918;51.280;7.950;2024-01-16T11:19:51;97198.13;;;3.58
72054;BMP280;59918;51.280;7.950;2024-01-16T11:22:17;97200.94;;;3.77
72054;BMP280;59918;51.280;7.950;2024-01-16T11:24:43;97194.03;;;3.99
72054;BMP280;59918;51.280;7.950;2024-01-16T11:27:08;97207.34;;;3.59
72054;BMP280;59918;51.280;7.950;2024-01-16T11:29:50;97202.44;;;3.43
72054;BMP280;59918;51.280;7.950;2024-01-16T11:32:36;97186.31;;;3.64
72054;BMP280;59918;51.280;7.950;2024-01-16T11:35:02;97185.72;;;3.63
72054;BMP280;59918;51.280;7.950;2024-01-16T11:37:31;97195.59;;;3.58
72054;BMP280;59918;51.280;7.950;2024-01-16T11:42:43;97183.16;;;3.63
72054;BMP280;59918;51.280;7.950;2024-01-16T11:48:14;97183.13;;;3.48
72054;BMP280;59918;51.280;7.950;2024-01-16T11:50:40;97181.22;;;3.36
72054;BMP280;59918;51.280;7.950;2024-01-16T11:53:05;97172.09;;;3.27
72054;BMP280;59918;51.280;7.950;2024-01-16T12:01:08;97182.47;;;2.67
72054;BMP280;59918;51.280;7.950;2024-01-16T12:03:34;97187.13;;;2.55
72054;BMP280;59918;51.280;7.950;2024-01-16T12:06:00;97182.84;;;2.56
72054;BMP280;59918;51.280;7.950;2024-01-16T12:08:26;97195.88;;;2.53
72054;BMP280;59918;51.280;7.950;2024-01-16T12:10:51;97195.53;;;2.56
72054;BMP280;59918;51.280;7.950;2024-01-16T12:13:17;97193.13;;;2.62
72054;BMP280;59918;51.280;7.950;2024-01-16T12:15:43;97182.72;;;2.72
72054;BMP280;59918;51.280;7.950;2024-01-16T12:18:08;97185.19;;;2.80
72054;BMP280;59918;51.280;7.950;2024-01-16T12:20:36;97181.19;;;2.85
72054;BMP280;59918;51.280;7.950;2024-01-16T12:23:08;97166.94;;;2.84
72054;BMP280;59918;51.280;7.950;2024-01-16T12:25:34;97159.66;;;2.81
72054;BMP280;59918;51.280;7.950;2024-01-16T12:28:04;97153.03;;;2.94
72054;BMP280;59918;51.280;7.950;2024-01-16T12:30:31;97140.66;;;2.91
72054;BMP280;59918;51.280;7.950;2024-01-16T12:33:09;97143.78;;;2.79
72054;BMP280;59918;51.280;7.950;2024-01-16T12:38:01;97143.75;;;2.43
72054;BMP280;59918;51.280;7.950;2024-01-16T12:40:27;97131.56;;;2.38
72054;BMP280;59918;51.280;7.950;2024-01-16T12:42:53;97130.97;;;2.36
72054;BMP280;59918;51.280;7.950;2024-01-16T12:45:19;97124.38;;;2.27
72054;BMP280;59918;51.280;7.950;2024-01-16T12:47:50;97125.78;;;2.08
72054;BMP280;59918;51.280;7.950;2024-01-16T12:50:22;97123.69;;;1.81
72054;BMP280;59918;51.280;7.950;2024-01-16T12:52:59;97123.09;;;1.71
72054;BMP280;59918;51.280;7.950;2024-01-16T12:55:25;97117.03;;;1.80
72054;BMP280;59918;51.280;7.950;2024-01-16T12:58:17;97114.94;;;1.83
72054;BMP280;59918;51.280;7.950;2024-01-16T13:00:46;97126.91;;;1.97
72054;BMP280;59918;51.280;7.950;2024-01-16T13:05:42;97109.69;;;1.93
72054;BMP280;59918;51.280;7.950;2024-01-16T13:08:07;97114.63;;;1.86
72054;BMP280;59918;51.280;7.950;2024-01-16T13:10:32;97112.56;;;1.82
72054;BMP280;59918;51.280;7.950;2024-01-16T13:15:38;97120.50;;;1.87
72054;BMP280;59918;51.280;7.950;2024-01-16T13:18:03;97119.19;;;1.91
72054;BMP280;59918;51.280;7.950;2024-01-16T13:20:29;97122.34;;;1.93
72054;BMP280;59918;51.280;7.950;2024-01-16T13:22:56;97119.56;;;2.10
72054;BMP280;59918;51.280;7.950;2024-01-16T13:25:22;97118.31;;;2.28
72054;BMP280;59918;51.280;7.950;2024-01-16T13:27:47;97117.59;;;2.42
72054;BMP280;59918;51.280;7.950;2024-01-16T13:30:12;97112.50;;;2.42
72054;BMP280;59918;51.280;7.950;2024-01-16T13:32:38;97118.56;;;2.41
72054;BMP280;59918;51.280;7.950;2024-01-16T13:35:04;97116.75;;;2.27
72054;BMP280;59918;51.280;7.950;2024-01-16T13:37:29;97108.69;;;2.24
72054;BMP280;59918;51.280;7.950;2024-01-16T13:39:54;97104.13;;;2.19
72054;BMP280;59918;51.280;7.950;2024-01-16T13:42:19;97108.03;;;2.30
72054;BMP280;59918;51.280;7.950;2024-01-16T13:44:45;97093.59;;;2.53
72054;BMP280;59918;51.280;7.950;2024-01-16T13:47:10;97096.28;;;3.16
72054;BMP280;59918;51.280;7.950;2024-01-16T13:49:35;97091.06;;;3.18
72054;BMP280;59918;51.280;7.950;2024-01-16T13:52:01;97092.88;;;3.09
72054;BMP280;59918;51.280;7.950;2024-01-16T13:54:26;97088.41;;;2.97
72054;BMP280;59918;51.280;7.950;2024-01-16T13:56:51;97080.84;;;2.89
72054;BMP280;59918;51.280;7.950;2024-01-16T13:59:17;97085.31;;;2.87
72054;BMP280;59918;51.280;7.950;2024-01-16T14:01:42;97082.94;;;2.86
72054;BMP280;59918;51.280;7.950;2024-01-16T14:04:07;97095.22;;;2.96
72054;BMP280;59918;51.280;7.950;2024-01-16T14:06:32;97082.97;;;3.14
72054;BMP280;59918;51.280;7.950;2024-01-16T14:08:57;97082.97;;;3.14
72054;BMP280;59918;51.280;7.950;2024-01-16T14:11:23;97077.47;;;2.96
72054;BMP280;59918;51.280;7.950;2024-01-16T14:13:48;97072.13;;;3.06
72054;BMP280;59918;51.280;7.950;2024-01-16T14:16:13;97070.16;;;4.21
72054;BMP280;59918;51.280;7.950;2024-01-16T14:18:38;97057.00;;;5.59
72054;BMP280;59918;51.280;7.950;2024-01-16T14:21:04;97058.53;;;5.54
72054;BMP280;59918;51.280;7.950;2024-01-16T14:23:29;97055.25;;;4.93
72054;BMP280;59918;51.280;7.950;2024-01-16T14:25:54;97054.59;;;5.05
72054;BMP280;59918;51.280;7.950;2024-01-16T14:28:19;97066.00;;;4.61
72054;BMP280;59918;51.280;7.950;2024-01-16T14:30:45;97072.28;;;4.17
72054;BMP280;59918;51.280;7.950;2024-01-16T14:33:10;97069.22;;;3.87
72054;BMP280;59918;51.280;7.950;2024-01-16T14:35:35;97062.03;;;3.76
72054;BMP280;59918;51.280;7.950;2024-01-16T14:38:01;97055.19;;;3.91
72054;BMP280;59918;51.280;7.950;2024-01-16T14:40:26;97051.41;;;3.87
72054;BMP280;59918;51.280;7.950;2024-01-16T14:42:52;97045.84;;;3.77